Terminal Aerodrome Forecast
Issued by NWS Shreveport, LA

Home | Current Version | Previous Version | Text Only | Print | Product List | Glossary On
Versions: 1 2 3 4 5 6 7 8 9 10 11 12 13 14 15 16 17 18 19 20 21
647
FTUS44 KSHV 291720
TAFELD
TAF
KELD 291720Z 2918/3018 16010KT P6SM VCTS OVC035CB
     FM300000 14008KT 4SM -TSRA BR OVC035CB
     FM300900 19010KT 4SM -TSRA BR OVC015CB
     FM301100 18011KT 4SM -TSRA BR OVC011CB=

USA.gov is the U.S. government's official web portal to all federal, state and local government web resources and services.